Time;durP1;ratioP1;P1;durP2;ratioP2;P2;SDS_P1;SDS_P2;PMS_P1;PMS_P2;Temp;Humidity;BMP_temperature;BMP_pressure;BME280_temperature;BME280_humidity;BME280_pressure;Samples;Min_cycle;Max_cycle;Signal;HPM_P1;HPM_P2
2021/04/04 00:02:17;;;;;;;0.38;0.38;;;22.70;31.10;;;;;;5067897;28;20139;-67
2021/04/04 00:04:43;;;;;;;0.20;0.20;;;22.70;31.10;;;;;;5067613;28;20049;-67
2021/04/04 00:07:10;;;;;;;0.30;0.30;;;22.70;31.10;;;;;;5067424;28;20055;-67
2021/04/04 00:09:37;;;;;;;0.40;0.40;;;22.70;31.10;;;;;;5065703;28;20098;-67
2021/04/04 00:12:06;;;;;;;0.95;0.30;;;22.70;31.10;;;;;;5067845;28;20049;-69
2021/04/04 00:14:36;;;;;;;0.47;0.47;;;22.70;31.10;;;;;;5068458;28;20571;-69
2021/04/04 00:17:04;;;;;;;0.38;0.32;;;22.70;31.10;;;;;;5070520;28;20148;-69
2021/04/04 00:19:31;;;;;;;0.38;0.30;;;22.70;31.00;;;;;;5068278;28;20143;-70
2021/04/04 00:21:58;;;;;;;0.28;0.28;;;22.70;31.00;;;;;;5067056;28;20041;-70
2021/04/04 00:24:24;;;;;;;0.22;0.22;;;22.70;31.10;;;;;;5067833;28;20405;-70
2021/04/04 00:26:51;;;;;;;0.38;0.38;;;22.70;31.10;;;;;;5066920;28;20083;-70
2021/04/04 00:29:17;;;;;;;0.60;0.40;;;22.70;31.10;;;;;;5067711;28;20040;-69
2021/04/04 00:31:44;;;;;;;0.73;0.20;;;22.70;31.10;;;;;;5067437;28;20139;-69
2021/04/04 00:34:11;;;;;;;0.30;0.28;;;22.70;31.10;;;;;;5067208;28;20072;-69
2021/04/04 00:36:37;;;;;;;0.20;0.20;;;22.60;31.10;;;;;;5067337;28;20501;-68
2021/04/04 00:39:08;;;;;;;0.30;0.30;;;22.60;31.10;;;;;;5067293;28;20163;-68
2021/04/04 00:41:39;;;;;;;0.80;0.30;;;22.60;31.10;;;;;;5066097;28;20087;-68
2021/04/04 00:44:07;;;;;;;0.45;0.20;;;22.60;31.10;;;;;;5066742;28;20098;-67
2021/04/04 00:46:34;;;;;;;0.38;0.38;;;22.60;31.10;;;;;;5066808;28;20212;-67
2021/04/04 00:49:01;;;;;;;0.30;0.30;;;22.60;31.20;;;;;;5067022;28;20055;-67
2021/04/04 00:51:28;;;;;;;0.20;0.20;;;22.60;31.20;;;;;;5065140;28;20131;-67
2021/04/04 00:53:55;;;;;;;0.28;0.28;;;22.60;31.20;;;;;;5066253;28;20049;-67
2021/04/04 00:56:22;;;;;;;0.22;0.22;;;22.60;31.20;;;;;;5066112;28;20404;-68
2021/04/04 00:58:49;;;;;;;0.20;0.20;;;22.60;31.20;;;;;;5066159;28;20080;-68
2021/04/04 01:01:16;;;;;;;0.90;0.43;;;22.60;31.20;;;;;;5066288;28;20076;-68
2021/04/04 01:03:43;;;;;;;0.30;0.30;;;22.60;31.20;;;;;;5065962;28;20135;-67
2021/04/04 01:06:11;;;;;;;0.68;0.68;;;22.60;31.20;;;;;;5066970;28;20083;-67
2021/04/04 01:08:40;;;;;;;0.20;0.20;;;22.60;31.30;;;;;;5066988;28;20040;-67
2021/04/04 01:11:08;;;;;;;0.20;0.20;;;22.60;31.20;;;;;;5066644;28;20076;-67
2021/04/04 01:13:52;;;;;;;0.28;0.28;;;22.60;31.20;;;;;;5066239;28;20052;-67
2021/04/04 01:16:26;;;;;;;0.40;0.30;;;22.70;31.30;;;;;;5065047;28;20048;-67
2021/04/04 01:19:06;;;;;;;0.40;0.40;;;22.70;31.40;;;;;;5065825;28;20072;-67
2021/04/04 01:21:53;;;;;;;0.20;0.20;;;22.60;31.90;;;;;;5065859;28;20143;-67
2021/04/04 01:24:53;;;;;;;0.20;0.20;;;22.60;31.30;;;;;;5065038;28;20136;-67
2021/04/04 01:27:44;;;;;;;0.37;0.37;;;22.60;31.40;;;;;;5066328;28;20147;-67
2021/04/04 01:30:12;;;;;;;0.30;0.22;;;22.60;31.40;;;;;;5051551;28;20071;-67
2021/04/04 01:32:41;;;;;;;0.20;0.20;;;22.60;31.40;;;;;;5066350;28;20068;-67
2021/04/04 01:35:11;;;;;;;0.55;0.30;;;22.60;31.50;;;;;;5066023;28;20374;-68
2021/04/04 01:37:42;;;;;;;0.35;0.35;;;22.60;31.50;;;;;;5066010;28;20529;-68
2021/04/04 01:40:13;;;;;;;0.20;0.20;;;22.60;31.50;;;;;;5065589;28;20050;-68
2021/04/04 01:42:42;;;;;;;0.45;0.38;;;22.60;31.50;;;;;;5065478;28;20523;-67
2021/04/04 01:45:09;;;;;;;0.20;0.20;;;22.60;31.50;;;;;;5065624;28;20136;-67
2021/04/04 01:47:36;;;;;;;0.20;0.20;;;22.60;31.50;;;;;;5065554;28;20072;-69
2021/04/04 01:50:07;;;;;;;0.40;0.38;;;22.60;31.60;;;;;;5065882;28;20398;-69
2021/04/04 01:52:36;;;;;;;0.40;0.40;;;22.60;31.60;;;;;;5065044;28;20110;-68
2021/04/04 01:55:04;;;;;;;0.20;0.20;;;22.60;31.60;;;;;;5065385;28;20048;-68
2021/04/04 01:57:32;;;;;;;0.20;0.20;;;22.60;31.60;;;;;;5065483;28;20049;-68
2021/04/04 02:00:01;;;;;;;0.55;0.35;;;22.60;31.60;;;;;;5066174;28;20076;-68
2021/04/04 02:02:28;;;;;;;0.28;0.28;;;22.60;31.60;;;;;;5067457;28;20140;-67
2021/04/04 02:04:55;;;;;;;0.38;0.25;;;22.60;31.60;;;;;;5067432;28;20135;-67
2021/04/04 02:07:22;;;;;;;0.10;0.10;;;22.60;31.60;;;;;;5066740;28;20572;-67
2021/04/04 02:09:50;;;;;;;0.20;0.20;;;22.60;31.60;;;;;;5066233;28;20054;-67
2021/04/04 02:12:18;;;;;;;0.17;0.17;;;22.60;31.60;;;;;;5067072;28;20079;-67
2021/04/04 02:14:46;;;;;;;0.30;0.20;;;22.60;31.60;;;;;;5066930;28;20492;-66
2021/04/04 02:17:15;;;;;;;0.20;0.20;;;22.60;31.60;;;;;;5067365;28;20052;-66
2021/04/04 02:19:42;;;;;;;0.22;0.20;;;22.60;31.60;;;;;;5067264;28;20278;-67
2021/04/04 02:22:10;;;;;;;0.70;0.22;;;22.60;31.60;;;;;;5067266;28;20080;-68
2021/04/04 02:24:38;;;;;;;0.20;0.20;;;22.60;31.60;;;;;;5067339;28;20056;-67
2021/04/04 02:27:05;;;;;;;0.20;0.20;;;22.60;31.70;;;;;;5066978;28;20140;-68
2021/04/04 02:29:32;;;;;;;0.10;0.10;;;22.50;31.70;;;;;;5066916;28;20126;-67
2021/04/04 02:32:07;;;;;;;0.13;0.13;;;22.50;31.70;;;;;;5067050;28;20049;-68
2021/04/04 02:34:37;;;;;;;0.90;0.20;;;22.60;31.70;;;;;;5066659;28;20616;-68
2021/04/04 02:37:09;;;;;;;0.10;0.10;;;22.50;31.70;;;;;;5067546;28;20094;-68
2021/04/04 02:39:44;;;;;;;0.47;0.20;;;22.50;31.70;;;;;;5066623;28;20044;-67
2021/04/04 02:42:12;;;;;;;0.30;0.30;;;22.50;31.70;;;;;;5067081;28;20055;-67
2021/04/04 02:44:40;;;;;;;0.22;0.20;;;22.50;31.70;;;;;;5067273;28;20127;-67
2021/04/04 02:47:11;;;;;;;0.38;0.38;;;22.50;31.70;;;;;;5066958;28;20110;-67
2021/04/04 02:49:39;;;;;;;0.35;0.35;;;22.50;31.70;;;;;;5066972;28;20113;-67
2021/04/04 02:52:08;;;;;;;0.40;0.35;;;22.50;31.70;;;;;;5066842;28;20076;-67
2021/04/04 02:54:36;;;;;;;0.47;0.47;;;22.50;31.70;;;;;;5066944;28;20048;-67
2021/04/04 02:57:06;;;;;;;0.70;0.32;;;22.50;31.60;;;;;;5066412;28;20308;-67
2021/04/04 02:59:44;;;;;;;0.30;0.30;;;22.50;31.60;;;;;;5066796;28;20187;-68
2021/04/04 03:02:15;;;;;;;0.20;0.20;;;22.60;31.70;;;;;;5066746;28;20084;-69
2021/04/04 03:04:43;;;;;;;0.25;0.20;;;22.50;31.60;;;;;;5065951;28;20121;-67
2021/04/04 03:07:12;;;;;;;0.20;0.20;;;22.50;31.60;;;;;;5071045;28;20131;-67
2021/04/04 03:09:43;;;;;;;0.70;0.28;;;22.50;31.60;;;;;;5070609;28;20052;-67
2021/04/04 03:12:13;;;;;;;0.38;0.20;;;22.50;31.60;;;;;;5071088;28;20052;-67
2021/04/04 03:14:41;;;;;;;0.20;0.20;;;22.50;31.60;;;;;;5070328;28;20489;-67
2021/04/04 03:17:09;;;;;;;0.20;0.20;;;22.50;31.60;;;;;;5069603;28;20513;-67
2021/04/04 03:19:39;;;;;;;0.45;0.45;;;22.50;31.60;;;;;;5069917;28;20131;-67
2021/04/04 03:22:07;;;;;;;0.20;0.20;;;22.50;31.70;;;;;;5069859;28;20181;-67
2021/04/04 03:24:35;;;;;;;0.30;0.20;;;22.50;31.60;;;;;;5070308;28;20136;-69
2021/04/04 03:27:02;;;;;;;0.20;0.20;;;22.50;31.60;;;;;;5070125;28;20648;-69
2021/04/04 03:29:30;;;;;;;0.32;0.30;;;22.50;31.60;;;;;;5069765;28;20222;-68
2021/04/04 03:31:58;;;;;;;0.30;0.28;;;22.50;31.60;;;;;;5069854;28;20056;-68
2021/04/04 03:34:25;;;;;;;0.35;0.20;;;22.50;31.60;;;;;;5070212;28;20501;-68
2021/04/04 03:36:54;;;;;;;0.10;0.10;;;22.50;31.70;;;;;;5070712;28;20669;-67
2021/04/04 03:39:22;;;;;;;0.38;0.38;;;22.50;31.70;;;;;;5069924;28;20482;-67
2021/04/04 03:41:51;;;;;;;0.20;0.20;;;22.50;31.70;;;;;;5070326;28;20048;-67
2021/04/04 03:44:21;;;;;;;0.25;0.25;;;22.50;31.70;;;;;;5069817;28;20430;-68
2021/04/04 03:46:49;;;;;;;0.15;0.15;;;22.50;31.70;;;;;;5069446;28;20060;-67
2021/04/04 03:49:17;;;;;;;0.45;0.20;;;22.50;31.60;;;;;;5069922;28;20136;-66
2021/04/04 03:51:44;;;;;;;0.38;0.20;;;22.50;31.60;;;;;;5069549;28;20067;-67
2021/04/04 03:54:13;;;;;;;0.20;0.20;;;22.50;31.60;;;;;;5069912;28;20162;-67
2021/04/04 03:56:45;;;;;;;0.75;0.20;;;22.50;31.60;;;;;;5069569;28;20636;-67
2021/04/04 03:59:13;;;;;;;0.30;0.30;;;22.50;31.60;;;;;;5069231;28;20083;-67
2021/04/04 04:01:44;;;;;;;0.17;0.17;;;22.50;31.60;;;;;;5068704;28;20128;-67
2021/04/04 04:04:15;;;;;;;0.25;0.20;;;22.50;31.60;;;;;;5069313;28;20672;-67
2021/04/04 04:06:44;;;;;;;0.10;0.10;;;22.50;31.60;;;;;;5070192;28;20374;-67
2021/04/04 04:09:16;;;;;;;0.30;0.30;;;22.50;31.60;;;;;;5069145;28;20050;-66
2021/04/04 04:11:45;;;;;;;0.20;0.17;;;22.50;31.60;;;;;;5069295;28;20462;-67
2021/04/04 04:14:15;;;;;;;0.30;0.13;;;22.50;31.60;;;;;;5069883;28;20048;-67
2021/04/04 04:16:42;;;;;;;0.20;0.20;;;22.50;31.70;;;;;;5067825;28;20144;-67
2021/04/04 04:19:11;;;;;;;0.20;0.20;;;22.50;31.70;;;;;;5069408;28;20321;-67
2021/04/04 04:21:39;;;;;;;0.38;0.20;;;22.50;31.70;;;;;;5068852;28;20119;-67
2021/04/04 04:24:10;;;;;;;0.30;0.20;;;22.50;31.70;;;;;;5069076;28;20140;-67
2021/04/04 04:26:42;;;;;;;0.10;0.10;;;22.50;31.70;;;;;;5069363;28;20135;-67
2021/04/04 04:29:11;;;;;;;0.40;0.40;;;22.50;31.80;;;;;;5069026;28;20076;-67
2021/04/04 04:31:42;;;;;;;0.20;0.20;;;22.50;31.70;;;;;;5069469;28;20554;-67
2021/04/04 04:34:13;;;;;;;0.17;0.17;;;22.50;31.80;;;;;;5068648;28;20083;-67
2021/04/04 04:36:41;;;;;;;0.28;0.28;;;22.40;31.70;;;;;;5069266;28;20477;-68
2021/04/04 04:39:10;;;;;;;0.30;0.20;;;22.50;31.80;;;;;;5068817;28;20086;-67
2021/04/04 04:41:47;;;;;;;0.10;0.10;;;22.50;31.80;;;;;;5068712;28;20052;-67
2021/04/04 04:44:24;;;;;;;0.30;0.25;;;22.50;31.70;;;;;;5068897;28;20075;-67
2021/04/04 04:46:50;;;;;;;0.10;0.10;;;22.50;31.70;;;;;;5067558;28;20049;-67
2021/04/04 04:49:18;;;;;;;1.13;0.20;;;22.50;31.70;;;;;;5068577;28;20543;-67
2021/04/04 04:51:48;;;;;;;0.68;0.10;;;22.60;31.70;;;;;;5068054;28;20463;-68
2021/04/04 04:54:16;;;;;;;0.10;0.10;;;22.60;31.70;;;;;;5067869;28;20131;-67
2021/04/04 04:56:44;;;;;;;0.28;0.28;;;22.60;31.70;;;;;;5068706;28;20044;-67
2021/04/04 04:59:11;;;;;;;0.40;0.15;;;22.60;31.60;;;;;;5068112;28;20484;-67
2021/04/04 05:01:41;;;;;;;0.10;0.10;;;22.60;31.60;;;;;;5068501;28;20048;-67
2021/04/04 05:04:08;;;;;;;0.40;0.20;;;22.60;31.60;;;;;;5068330;28;20049;-67
2021/04/04 05:06:35;;;;;;;1.42;0.73;;;22.60;31.60;;;;;;5068119;28;20278;-68
2021/04/04 05:09:06;;;;;;;0.40;0.30;;;22.60;31.50;;;;;;5067173;28;20044;-68
2021/04/04 05:11:39;;;;;;;0.30;0.30;;;22.60;31.40;;;;;;5068128;28;20127;-67
2021/04/04 05:14:05;;;;;;;0.38;0.38;;;22.60;31.30;;;;;;5068630;28;20387;-67
2021/04/04 05:16:32;;;;;;;0.30;0.30;;;22.70;31.20;;;;;;5068473;28;20105;-69
2021/04/04 05:18:59;;;;;;;0.70;0.40;;;22.70;31.20;;;;;;5068102;28;20127;-67
2021/04/04 05:21:28;;;;;;;0.80;0.38;;;22.70;31.20;;;;;;5068230;28;20618;-67
2021/04/04 05:23:59;;;;;;;0.60;0.50;;;22.70;31.20;;;;;;5067773;28;20062;-68
2021/04/04 05:26:37;;;;;;;0.40;0.40;;;22.70;31.20;;;;;;5067927;28;20397;-67
2021/04/04 05:29:06;;;;;;;0.20;0.20;;;22.80;31.20;;;;;;5067150;28;20079;-68
2021/04/04 05:31:32;;;;;;;0.30;0.30;;;22.80;31.10;;;;;;5067884;28;20071;-67
2021/04/04 05:34:00;;;;;;;0.57;0.52;;;22.80;31.10;;;;;;5067837;28;20433;-67
2021/04/04 05:36:27;;;;;;;0.50;0.50;;;22.90;31.10;;;;;;5066941;28;20048;-67
2021/04/04 05:38:57;;;;;;;0.40;0.40;;;22.90;31.00;;;;;;5065932;28;20132;-67
2021/04/04 05:41:32;;;;;;;0.68;0.40;;;23.00;31.00;;;;;;5065267;28;20080;-67
2021/04/04 05:44:04;;;;;;;0.30;0.30;;;23.00;30.80;;;;;;5067826;28;20131;-66
2021/04/04 05:46:35;;;;;;;0.80;0.60;;;23.00;30.80;;;;;;5067618;28;20483;-66
2021/04/04 05:49:16;;;;;;;0.45;0.43;;;23.10;30.80;;;;;;5067305;28;20279;-67
2021/04/04 05:52:00;;;;;;;0.80;0.70;;;23.10;30.70;;;;;;5067886;28;20080;-68
2021/04/04 05:54:59;;;;;;;1.20;0.40;;;23.10;30.60;;;;;;5067062;28;20131;-67
2021/04/04 05:57:43;;;;;;;0.45;0.40;;;23.20;30.50;;;;;;5066162;28;20430;-67
2021/04/04 06:00:11;;;;;;;0.60;0.60;;;23.20;30.40;;;;;;5067299;28;20135;-67
2021/04/04 06:03:18;;;;;;;0.52;0.52;;;23.30;30.40;;;;;;5067785;28;20114;-67
2021/04/04 06:06:22;;;;;;;0.68;0.68;;;23.30;30.20;;;;;;5066011;28;20136;-66
2021/04/04 06:09:18;;;;;;;0.40;0.40;;;23.40;30.20;;;;;;5066133;28;20114;-66
2021/04/04 06:12:20;;;;;;;0.40;0.40;;;23.50;30.20;;;;;;5066873;28;20087;-66
2021/04/04 06:15:16;;;;;;;0.40;0.40;;;23.50;30.10;;;;;;5067175;28;20147;-67
2021/04/04 06:18:10;;;;;;;0.43;0.43;;;23.50;30.00;;;;;;5067231;28;20044;-68
2021/04/04 06:21:02;;;;;;;0.60;0.60;;;23.60;30.00;;;;;;5067602;28;20139;-67
2021/04/04 06:23:35;;;;;;;0.40;0.40;;;23.70;30.00;;;;;;5066973;28;20044;-68
2021/04/04 06:26:41;;;;;;;0.60;0.55;;;23.70;29.90;;;;;;5067664;28;20072;-68
2021/04/04 06:29:16;;;;;;;0.45;0.45;;;23.80;29.90;;;;;;5067056;28;20485;-67
2021/04/04 06:31:59;;;;;;;0.45;0.45;;;23.90;29.80;;;;;;5066915;28;20501;-67
2021/04/04 06:34:42;;;;;;;0.68;0.50;;;23.90;29.70;;;;;;5065159;28;20536;-67
2021/04/04 06:37:48;;;;;;;0.40;0.40;;;24.10;29.60;;;;;;5064913;28;20048;-67
2021/04/04 06:40:40;;;;;;;0.93;0.70;;;24.10;29.50;;;;;;5065114;28;20456;-68
2021/04/04 06:43:43;;;;;;;0.57;0.50;;;24.20;29.40;;;;;;5064334;28;20144;-68
2021/04/04 06:46:32;;;;;;;1.65;0.77;;;24.20;29.40;;;;;;5065608;28;20048;-68
2021/04/04 06:49:33;;;;;;;0.52;0.52;;;24.30;29.40;;;;;;5064709;28;20588;-67
2021/04/04 06:52:17;;;;;;;0.50;0.50;;;24.30;29.40;;;;;;5065428;28;20360;-67
2021/04/04 06:55:15;;;;;;;0.70;0.70;;;24.30;29.30;;;;;;5065032;28;20101;-67
2021/04/04 06:58:21;;;;;;;0.47;0.47;;;24.40;29.20;;;;;;5065389;28;20062;-67
2021/04/04 07:01:05;;;;;;;0.68;0.65;;;24.50;29.20;;;;;;5064742;28;20131;-66
2021/04/04 07:03:43;;;;;;;0.90;0.90;;;24.50;29.10;;;;;;5064493;28;20044;-66
2021/04/04 07:06:43;;;;;;;0.80;0.80;;;24.50;29.00;;;;;;5065038;28;20048;-67
2021/04/04 07:09:50;;;;;;;0.50;0.50;;;24.50;29.00;;;;;;5064077;28;20053;-67
2021/04/04 07:12:41;;;;;;;0.82;0.70;;;24.60;28.90;;;;;;5064400;28;20505;-67
2021/04/04 07:15:26;;;;;;;0.70;0.70;;;24.60;28.90;;;;;;5064571;28;20205;-67
2021/04/04 07:18:27;;;;;;;1.00;0.90;;;24.70;28.90;;;;;;5064539;28;20132;-67
2021/04/04 07:21:14;;;;;;;0.68;0.68;;;24.70;28.80;;;;;;5064218;28;20054;-68
2021/04/04 07:24:04;;;;;;;0.98;0.90;;;24.80;28.70;;;;;;5064204;28;20440;-68
2021/04/04 07:27:07;;;;;;;0.90;0.90;;;24.80;28.60;;;;;;5064686;28;20072;-67
2021/04/04 07:30:01;;;;;;;0.77;0.77;;;24.90;28.60;;;;;;5064303;28;20044;-67
2021/04/04 07:32:46;;;;;;;0.90;0.90;;;24.90;28.50;;;;;;5063424;28;20135;-67
2021/04/04 07:35:23;;;;;;;0.60;0.60;;;25.00;28.50;;;;;;5064441;28;20298;-67
2021/04/04 07:37:53;;;;;;;1.25;0.90;;;25.00;28.40;;;;;;5064495;28;20094;-66
2021/04/04 07:40:24;;;;;;;;;;;25.10;28.40;;;;;;5064916;28;20505;-66
2021/04/04 07:43:05;;;;;;;0.73;0.73;;;25.10;28.30;;;;;;5064155;28;20337;-66
2021/04/04 07:45:43;;;;;;;1.40;0.88;;;25.10;28.20;;;;;;5063827;28;20140;-67
2021/04/04 07:48:25;;;;;;;0.93;0.93;;;25.20;28.20;;;;;;5063390;28;20501;-67
2021/04/04 07:51:05;;;;;;;1.27;0.90;;;25.20;28.10;;;;;;5064377;28;20073;-68
2021/04/04 07:53:57;;;;;;;0.70;0.70;;;25.30;28.10;;;;;;5067295;28;20243;-68
2021/04/04 07:56:52;;;;;;;1.52;1.00;;;25.30;28.00;;;;;;5067813;28;20059;-68
2021/04/04 07:59:35;;;;;;;1.17;1.00;;;25.40;28.00;;;;;;5067817;28;20083;-68
2021/04/04 08:02:36;;;;;;;1.13;0.90;;;25.40;27.90;;;;;;5067478;28;20135;-67
2021/04/04 08:05:08;;;;;;;1.30;1.17;;;25.50;27.90;;;;;;5067324;28;20691;-67
2021/04/04 08:07:56;;;;;;;1.00;0.90;;;25.50;28.30;;;;;;5067016;28;20471;-67
2021/04/04 08:10:30;;;;;;;1.10;0.98;;;25.50;27.80;;;;;;5067038;28;20072;-67
2021/04/04 08:13:29;;;;;;;1.35;1.23;;;25.60;27.80;;;;;;5067154;28;20080;-67
2021/04/04 08:16:22;;;;;;;1.27;1.17;;;25.60;27.80;;;;;;5067357;28;20492;-66
2021/04/04 08:18:50;;;;;;;0.75;0.75;;;25.70;27.80;;;;;;5066025;28;20474;-66
2021/04/04 08:21:56;;;;;;;0.90;0.90;;;25.70;27.70;;;;;;5067381;28;20067;-66
2021/04/04 08:24:31;;;;;;;1.08;1.00;;;25.70;27.70;;;;;;5067275;28;20135;-67
2021/04/04 08:27:20;;;;;;;1.10;1.10;;;25.70;27.60;;;;;;5067533;28;20282;-67
2021/04/04 08:30:17;;;;;;;1.02;0.90;;;25.70;27.50;;;;;;5067014;28;20552;-67
2021/04/04 08:33:01;;;;;;;1.35;1.00;;;25.70;27.50;;;;;;5066944;28;20126;-67
2021/04/04 08:35:39;;;;;;;1.20;1.15;;;25.70;27.50;;;;;;5067327;28;20055;-66
2021/04/04 08:38:23;;;;;;;1.00;1.00;;;25.70;27.50;;;;;;5066882;28;20048;-67
2021/04/04 08:40:50;;;;;;;0.80;0.80;;;25.80;27.50;;;;;;5066872;28;20572;-67
2021/04/04 08:43:17;;;;;;;1.10;0.90;;;25.90;27.40;;;;;;5066733;28;20048;-67
2021/04/04 08:45:59;;;;;;;1.10;1.00;;;25.90;27.40;;;;;;5065595;28;20139;-67
2021/04/04 08:48:28;;;;;;;1.20;1.10;;;25.90;27.30;;;;;;5067196;28;20131;-68
2021/04/04 08:50:57;;;;;;;1.10;1.10;;;26.00;27.30;;;;;;5066719;28;20044;-68
2021/04/04 08:53:31;;;;;;;1.25;1.20;;;26.00;27.20;;;;;;5066828;28;20127;-68
2021/04/04 08:56:00;;;;;;;1.30;1.10;;;26.00;27.20;;;;;;5065827;28;20321;-67
2021/04/04 08:58:44;;;;;;;1.60;1.00;;;26.00;27.20;;;;;;5066477;28;20087;-67
2021/04/04 09:01:15;;;;;;;1.00;1.00;;;26.00;27.10;;;;;;5066425;28;20044;-67
2021/04/04 09:04:01;;;;;;;1.58;1.48;;;26.10;27.20;;;;;;5065447;28;20045;-67
2021/04/04 09:06:43;;;;;;;1.20;1.10;;;26.10;27.10;;;;;;5066869;28;20140;-67
2021/04/04 09:09:23;;;;;;;1.38;0.90;;;26.20;27.10;;;;;;5066171;28;20071;-68
2021/04/04 09:11:52;;;;;;;1.30;1.20;;;26.20;27.10;;;;;;5065440;28;20045;-67
2021/04/04 09:14:22;;;;;;;1.27;1.17;;;26.20;27.00;;;;;;5066245;28;20533;-68
2021/04/04 09:16:53;;;;;;;1.08;1.08;;;26.20;27.00;;;;;;5066524;28;20040;-67
2021/04/04 09:19:36;;;;;;;0.90;0.90;;;26.30;27.00;;;;;;5066550;28;20225;-67
2021/04/04 09:22:10;;;;;;;1.48;1.20;;;26.20;26.90;;;;;;5065012;28;20405;-67
2021/04/04 09:24:53;;;;;;;0.70;0.70;;;26.30;26.90;;;;;;5064707;28;20489;-67
2021/04/04 09:27:21;;;;;;;1.42;1.33;;;26.20;27.30;;;;;;5066588;28;20137;-67
2021/04/04 09:29:51;;;;;;;1.08;1.08;;;26.20;26.80;;;;;;5065888;28;20072;-67
2021/04/04 09:32:35;;;;;;;1.88;1.42;;;26.20;26.70;;;;;;5065910;28;20136;-66
2021/04/04 09:35:16;;;;;;;1.55;1.45;;;26.20;26.80;;;;;;5066021;28;20041;-66
2021/04/04 09:37:45;;;;;;;1.65;1.55;;;26.20;26.70;;;;;;5065836;28;20144;-66
2021/04/04 09:40:13;;;;;;;1.10;1.10;;;26.10;27.10;;;;;;5065959;28;20087;-67
2021/04/04 09:42:39;;;;;;;1.30;1.30;;;26.10;26.80;;;;;;5065878;28;20055;-67
2021/04/04 09:45:20;;;;;;;1.40;1.30;;;26.10;26.80;;;;;;5065989;28;20118;-67
2021/04/04 09:47:48;;;;;;;1.63;1.40;;;26.00;26.70;;;;;;5065180;28;20123;-67
2021/04/04 09:50:28;;;;;;;1.50;1.40;;;26.00;26.70;;;;;;5065506;28;20075;-66
2021/04/04 09:52:55;;;;;;;;;;;25.90;26.70;;;;;;5066461;28;20456;-66
2021/04/04 09:55:24;;;;;;;1.35;1.15;;;25.90;26.60;;;;;;5065519;28;19948;-66
2021/04/04 09:58:00;;;;;;;2.00;1.40;;;25.80;26.70;;;;;;5065244;28;20055;-67
2021/04/04 10:00:30;;;;;;;1.50;1.40;;;25.80;26.80;;;;;;5065927;28;20394;-67
2021/04/04 10:03:16;;;;;;;1.20;1.10;;;25.80;26.80;;;;;;5065516;28;20143;-67
2021/04/04 10:05:45;;;;;;;1.30;1.20;;;25.80;26.80;;;;;;5065131;28;20091;-67
2021/04/04 10:08:22;;;;;;;1.42;1.33;;;25.80;26.80;;;;;;5065715;28;20508;-67
2021/04/04 10:10:51;;;;;;;1.17;1.13;;;25.80;26.80;;;;;;5065167;28;20041;-66
2021/04/04 10:13:30;;;;;;;1.40;1.30;;;25.80;26.80;;;;;;5065059;28;20055;-66
2021/04/04 10:15:58;;;;;;;1.40;1.30;;;25.80;26.80;;;;;;5065250;28;20044;-66
2021/04/04 10:18:26;;;;;;;1.38;1.27;;;25.80;26.80;;;;;;5065225;28;20052;-67
2021/04/04 10:20:58;;;;;;;1.50;1.40;;;25.80;26.80;;;;;;5065298;28;20512;-67
2021/04/04 10:23:30;;;;;;;1.30;1.20;;;25.90;26.80;;;;;;5064852;28;20496;-67
2021/04/04 10:26:01;;;;;;;1.63;1.52;;;25.80;26.70;;;;;;5064949;28;20566;-66
2021/04/04 10:28:56;;;;;;;1.40;1.30;;;25.90;26.80;;;;;;5064889;28;20045;-67
2021/04/04 10:31:24;;;;;;;1.98;1.33;;;25.90;26.70;;;;;;5065380;28;20143;-68
2021/04/04 10:33:58;;;;;;;1.58;1.48;;;25.90;26.60;;;;;;5065337;28;20498;-66
2021/04/04 10:36:27;;;;;;;1.52;1.42;;;25.90;26.70;;;;;;5065026;28;20048;-67
2021/04/04 10:38:55;;;;;;;1.50;1.30;;;25.90;26.60;;;;;;5064328;28;20531;-67
2021/04/04 10:41:35;;;;;;;1.70;1.60;;;26.00;26.60;;;;;;5064583;28;20413;-67
2021/04/04 10:44:02;;;;;;;1.40;1.30;;;26.00;26.60;;;;;;5064428;28;20135;-66
2021/04/04 10:46:31;;;;;;;1.42;1.35;;;26.00;26.60;;;;;;5063041;28;20397;-67
2021/04/04 10:48:59;;;;;;;1.33;1.20;;;26.00;26.60;;;;;;5064460;28;20083;-66
2021/04/04 10:51:28;;;;;;;1.50;1.40;;;26.00;26.60;;;;;;5065013;28;20067;-66
2021/04/04 10:53:56;;;;;;;1.38;1.27;;;26.00;26.60;;;;;;5062727;28;20123;-66
2021/04/04 10:56:23;;;;;;;1.92;1.38;;;25.90;26.60;;;;;;5064695;28;20075;-67
2021/04/04 10:58:51;;;;;;;1.40;1.30;;;25.90;26.60;;;;;;5063548;28;20132;-67
2021/04/04 11:01:17;;;;;;;1.20;1.20;;;25.90;26.60;;;;;;5064989;28;20288;-66
2021/04/04 11:03:44;;;;;;;0.88;0.88;;;25.90;26.60;;;;;;5064433;28;20609;-66
2021/04/04 11:06:15;;;;;;;1.48;1.38;;;25.90;26.60;;;;;;5065066;28;20134;-67
2021/04/04 11:08:42;;;;;;;1.17;1.10;;;25.90;26.60;;;;;;5064914;28;20398;-66
2021/04/04 11:11:13;;;;;;;1.55;1.45;;;25.90;26.50;;;;;;5064848;28;20125;-66
2021/04/04 11:13:43;;;;;;;1.75;1.35;;;25.90;26.40;;;;;;5064221;28;20041;-67
2021/04/04 11:16:11;;;;;;;1.50;1.40;;;26.00;26.40;;;;;;5064126;28;20045;-67
2021/04/04 11:18:45;;;;;;;1.70;1.60;;;26.00;26.40;;;;;;5064086;28;20139;-67
2021/04/04 11:21:17;;;;;;;1.48;1.38;;;26.00;26.40;;;;;;5064574;28;20127;-66
2021/04/04 11:23:44;;;;;;;2.67;1.30;;;26.00;26.30;;;;;;5064222;28;20055;-67
2021/04/04 11:26:32;;;;;;;2.80;1.50;;;26.00;26.20;;;;;;5065727;28;20131;-68
2021/04/04 11:29:19;;;;;;;1.13;1.08;;;26.00;26.20;;;;;;5068191;28;20083;-67
2021/04/04 11:31:51;;;;;;;1.58;1.30;;;26.00;26.30;;;;;;5068082;28;20049;-67
2021/04/04 11:34:41;;;;;;;1.42;1.30;;;26.00;26.20;;;;;;5068629;28;20103;-67
2021/04/04 11:37:38;;;;;;;1.38;1.27;;;26.00;26.20;;;;;;5068082;28;20580;-67
2021/04/04 11:40:23;;;;;;;1.58;1.48;;;26.00;26.30;;;;;;5066963;28;20296;-67
2021/04/04 11:43:11;;;;;;;1.65;1.55;;;26.00;26.20;;;;;;5066425;28;20057;-67
2021/04/04 11:45:39;;;;;;;1.42;1.33;;;25.90;26.10;;;;;;5068106;28;20040;-66
2021/04/04 11:48:36;;;;;;;1.38;1.35;;;25.90;26.20;;;;;;5067885;28;20052;-66
2021/04/04 11:51:30;;;;;;;1.15;1.13;;;25.90;26.20;;;;;;5067961;28;20045;-66
2021/04/04 11:53:57;;;;;;;0.98;0.95;;;25.90;26.20;;;;;;5067219;28;20472;-67
2021/04/04 11:56:49;;;;;;;1.00;1.00;;;25.90;26.20;;;;;;5067899;28;20083;-67
2021/04/04 11:59:18;;;;;;;1.63;1.40;;;26.00;26.20;;;;;;5068410;28;20493;-67
2021/04/04 12:01:45;;;;;;;1.55;1.45;;;26.00;26.10;;;;;;5067750;28;20044;-67
2021/04/04 12:04:36;;;;;;;1.52;1.30;;;25.90;26.00;;;;;;5067669;28;20127;-67
2021/04/04 12:07:09;;;;;;;1.08;1.00;;;25.90;26.00;;;;;;5067399;28;20135;-66
2021/04/04 12:09:36;;;;;;;1.70;1.60;;;25.90;26.10;;;;;;5067590;28;20056;-66
2021/04/04 12:12:07;;;;;;;1.45;1.35;;;25.90;26.00;;;;;;5067874;28;20128;-65
2021/04/04 12:14:55;;;;;;;1.42;1.33;;;25.90;26.00;;;;;;5067480;28;20040;-65
2021/04/04 12:17:24;;;;;;;1.52;1.42;;;25.90;26.10;;;;;;5068165;28;20052;-67
2021/04/04 12:19:51;;;;;;;1.42;1.33;;;25.80;25.90;;;;;;5067250;28;20133;-67
2021/04/04 12:22:19;;;;;;;1.20;1.20;;;25.80;25.80;;;;;;5067977;28;20140;-67
2021/04/04 12:24:51;;;;;;;1.13;1.13;;;25.80;25.80;;;;;;5067108;28;20052;-66
2021/04/04 12:27:25;;;;;;;2.08;1.50;;;25.70;25.90;;;;;;5067225;28;20127;-66
2021/04/04 12:29:56;;;;;;;1.25;1.25;;;25.70;25.90;;;;;;5066727;28;20329;-67
2021/04/04 12:32:28;;;;;;;1.85;1.75;;;25.70;25.90;;;;;;5067557;28;20429;-67
2021/04/04 12:35:01;;;;;;;1.20;1.10;;;25.70;25.90;;;;;;5067604;28;20048;-67
2021/04/04 12:37:29;;;;;;;1.27;1.17;;;25.70;26.00;;;;;;5067074;28;20040;-67
2021/04/04 12:39:58;;;;;;;1.13;1.13;;;25.70;26.00;;;;;;5067200;28;20052;-67
2021/04/04 12:42:32;;;;;;;0.90;0.90;;;25.70;26.00;;;;;;5067064;28;20524;-67
2021/04/04 12:45:07;;;;;;;1.55;1.45;;;25.70;26.00;;;;;;5066245;28;20533;-66
2021/04/04 12:47:34;;;;;;;1.35;1.25;;;25.70;26.00;;;;;;5067199;28;20478;-66
2021/04/04 12:50:14;;;;;;;1.25;1.15;;;25.70;25.90;;;;;;5066479;28;20049;-66
2021/04/04 12:52:46;;;;;;;1.40;1.30;;;25.70;25.80;;;;;;5065277;28;20056;-65
2021/04/04 12:55:21;;;;;;;2.45;2.22;;;25.70;25.80;;;;;;5065293;28;20363;-65
2021/04/04 12:57:57;;;;;;;1.20;1.20;;;25.80;25.70;;;;;;5066759;28;20139;-67
2021/04/04 13:00:31;;;;;;;1.30;1.20;;;25.80;25.70;;;;;;5066564;28;20048;-67
2021/04/04 13:03:08;;;;;;;1.95;1.75;;;25.80;25.60;;;;;;5066529;28;20058;-67
2021/04/04 13:05:46;;;;;;;1.25;1.23;;;25.80;25.60;;;;;;5066524;28;20076;-67
2021/04/04 13:08:22;;;;;;;1.38;1.27;;;25.80;25.60;;;;;;5065511;28;20663;-66
2021/04/04 13:10:52;;;;;;;1.73;1.63;;;25.80;25.70;;;;;;5065921;28;20056;-69
2021/04/04 13:13:28;;;;;;;1.55;1.45;;;25.80;25.60;;;;;;5066438;28;20076;-66
2021/04/04 13:16:08;;;;;;;1.30;1.20;;;25.80;25.60;;;;;;5066572;28;20094;-67
2021/04/04 13:18:37;;;;;;;1.20;1.20;;;25.80;26.10;;;;;;5066224;28;20127;-67
2021/04/04 13:21:06;;;;;;;;;;;25.80;25.70;;;;;;5067024;28;20341;-68
2021/04/04 13:23:39;;;;;;;1.27;1.17;;;25.80;25.70;;;;;;5066052;28;20024;-68
2021/04/04 13:26:08;;;;;;;1.02;1.02;;;25.80;25.80;;;;;;5065981;28;20459;-68
2021/04/04 13:28:36;;;;;;;1.10;1.10;;;25.80;25.80;;;;;;5064904;28;20319;-68